Time;durP1;ratioP1;P1;durP2;ratioP2;P2;SDS_P1;SDS_P2;PMS_P1;PMS_P2;Temp;Humidity;BMP_temperature;BMP_pressure;BME280_temperature;BME280_humidity;BME280_pressure;Samples;Min_cycle;Max_cycle;Signal;HPM_P1;HPM_P2
2021/03/05 00:00:40;;;;;;;21.13;12.90;;;3.00;99.90;;;-141.85;100.00;63675.41;5015351;28;20603;-59
2021/03/05 00:03:08;;;;;;;22.40;12.93;;;2.90;99.90;;;-141.85;100.00;63675.41;5029076;28;20291;-64
2021/03/05 00:05:38;;;;;;;20.77;12.90;;;3.10;99.90;;;-141.85;100.00;63675.41;5035361;28;20202;-64
2021/03/05 00:08:08;;;;;;;22.40;13.33;;;3.10;99.90;;;-141.85;100.00;63675.41;5035017;28;20206;-65
2021/03/05 00:10:39;;;;;;;21.97;12.30;;;3.20;99.90;;;-141.85;100.00;63675.41;5034920;28;20243;-64
2021/03/05 00:13:06;;;;;;;20.13;12.53;;;3.10;99.90;;;-141.85;100.00;63675.41;5035169;28;20190;-64
2021/03/05 00:15:36;;;;;;;18.63;11.83;;;3.10;99.90;;;-141.85;100.00;63675.41;5035756;28;20316;-64
2021/03/05 00:18:05;;;;;;;21.30;13.23;;;3.20;99.90;;;-141.85;100.00;63675.41;5037964;28;20212;-65
2021/03/05 00:20:36;;;;;;;21.13;13.17;;;3.20;99.90;;;-141.85;100.00;63675.41;5036921;28;20300;-64
2021/03/05 00:23:03;;;;;;;23.57;12.47;;;3.30;99.90;;;-141.85;100.00;63675.41;5035055;28;20194;-59
2021/03/05 00:25:30;;;;;;;19.53;11.63;;;3.20;99.90;;;-141.85;100.00;63675.41;5034868;28;20227;-60
2021/03/05 00:27:59;;;;;;;23.57;12.90;;;3.20;99.90;;;-141.85;100.00;63675.41;5035075;28;20230;-58
2021/03/05 00:30:27;;;;;;;20.60;12.33;;;3.20;99.90;;;-141.85;100.00;63675.41;5034668;28;20770;-58
2021/03/05 00:32:55;;;;;;;19.87;11.93;;;3.20;99.90;;;-141.85;100.00;63675.41;5034567;28;20206;-60
2021/03/05 00:35:23;;;;;;;19.20;12.07;;;3.40;99.90;;;-141.85;100.00;63675.41;5034300;28;20233;-59
2021/03/05 00:37:51;;;;;;;19.03;11.50;;;3.30;99.90;;;-141.85;100.00;63675.41;5024467;28;20278;-58
2021/03/05 00:40:23;;;;;;;19.87;11.93;;;3.40;99.90;;;-141.85;100.00;63675.41;5014410;28;20206;-59
2021/03/05 00:42:52;;;;;;;20.47;12.37;;;3.40;99.90;;;-141.85;100.00;63675.41;5014912;28;20186;-59
2021/03/05 00:45:23;;;;;;;23.00;12.77;;;3.40;99.90;;;-141.85;100.00;63675.41;5014748;28;20261;-58
2021/03/05 00:47:51;;;;;;;20.20;12.20;;;3.40;99.90;;;-141.85;100.00;63675.41;5014238;28;20532;-58
2021/03/05 00:50:20;;;;;;;22.43;12.63;;;3.40;99.90;;;-141.85;100.00;63675.41;5014300;28;20215;-61
2021/03/05 00:52:50;;;;;;;20.97;12.07;;;3.30;99.90;;;-141.85;100.00;63675.41;5014344;28;20258;-59
2021/03/05 00:55:17;;;;;;;21.00;13.30;;;3.30;99.90;;;-141.85;100.00;63675.41;5014370;28;20235;-60
2021/03/05 00:57:45;;;;;;;19.57;12.27;;;3.40;99.90;;;-141.85;100.00;63675.41;5014497;28;20260;-59
2021/03/05 01:00:15;;;;;;;18.00;11.10;;;3.40;99.90;;;-141.85;100.00;63675.41;5014460;28;20217;-59
2021/03/05 01:02:44;;;;;;;20.97;11.50;;;3.40;99.90;;;-141.85;100.00;63675.41;5014312;28;20237;-60
2021/03/05 01:05:11;;;;;;;18.97;12.07;;;3.40;99.90;;;-141.85;100.00;63675.41;5014343;28;20205;-59
2021/03/05 01:07:39;;;;;;;19.60;12.77;;;3.30;99.90;;;-141.85;100.00;63675.41;5014013;28;20664;-59
2021/03/05 01:10:08;;;;;;;18.97;12.50;;;3.30;99.90;;;-141.85;100.00;63675.41;5014198;28;20205;-58
2021/03/05 01:12:36;;;;;;;20.97;12.17;;;3.20;99.90;;;-141.85;100.00;63675.41;5014159;28;20731;-59
2021/03/05 01:15:06;;;;;;;19.53;11.80;;;3.20;99.90;;;-141.85;100.00;63675.41;5013660;28;20620;-59
2021/03/05 01:17:33;;;;;;;19.70;11.00;;;3.20;99.90;;;-141.85;100.00;63675.41;5013669;28;20249;-59
2021/03/05 01:20:06;;;;;;;18.07;11.80;;;3.30;99.90;;;-141.85;100.00;63675.41;5013928;28;20234;-59
2021/03/05 01:22:33;;;;;;;18.77;11.57;;;3.40;99.90;;;-141.85;100.00;63675.41;5014158;28;20277;-59
2021/03/05 01:25:00;;;;;;;20.47;12.13;;;3.40;99.90;;;-141.85;100.00;63675.41;5013955;28;20620;-60
2021/03/05 01:27:27;;;;;;;17.13;11.20;;;3.40;99.90;;;-141.85;100.00;63675.41;5014051;28;20253;-59
2021/03/05 01:29:55;;;;;;;21.73;12.60;;;3.40;99.90;;;-141.85;100.00;63675.41;5014055;28;20207;-59
2021/03/05 01:32:22;;;;;;;16.80;10.67;;;3.40;99.90;;;-141.85;100.00;63675.41;5013815;28;20234;-59
2021/03/05 01:34:49;;;;;;;20.53;12.17;;;3.40;99.90;;;-141.85;100.00;63675.41;5013373;28;20224;-59
2021/03/05 01:37:17;;;;;;;18.00;11.10;;;3.40;99.90;;;-141.85;100.00;63675.41;5013873;28;20266;-59
2021/03/05 01:39:44;;;;;;;19.80;11.20;;;3.50;99.90;;;-141.85;100.00;63675.41;5013759;28;20285;-59
2021/03/05 01:42:11;;;;;;;19.43;12.00;;;3.60;99.90;;;-141.85;100.00;63675.41;5013856;28;20205;-59
2021/03/05 01:44:38;;;;;;;20.97;12.40;;;3.60;99.90;;;-141.85;100.00;63675.41;5013787;28;20245;-59
2021/03/05 01:47:05;;;;;;;20.93;11.57;;;3.60;99.90;;;-141.85;100.00;63675.41;5013430;28;20602;-58
2021/03/05 01:49:33;;;;;;;16.87;11.10;;;3.70;99.90;;;-141.85;100.00;63675.41;5013482;28;20562;-59
2021/03/05 01:52:01;;;;;;;18.90;11.40;;;3.60;99.90;;;-141.85;100.00;63675.41;5013334;28;20202;-59
2021/03/05 01:54:28;;;;;;;17.23;11.20;;;3.50;99.90;;;-141.85;100.00;63675.41;5013640;28;20280;-58
2021/03/05 01:56:56;;;;;;;17.80;11.67;;;3.50;99.90;;;-141.85;100.00;63675.41;5013273;28;20242;-59
2021/03/05 01:59:30;;;;;;;18.10;11.60;;;3.60;99.90;;;-141.85;100.00;63675.41;5013361;28;20232;-59
2021/03/05 02:01:59;;;;;;;19.87;12.13;;;3.60;99.90;;;-141.85;100.00;63675.41;5013006;28;20617;-59
2021/03/05 02:04:27;;;;;;;16.27;10.57;;;3.60;99.90;;;-141.85;100.00;63675.41;5013427;28;20264;-59
2021/03/05 02:07:01;;;;;;;18.17;10.70;;;3.50;99.90;;;-141.85;100.00;63675.41;5013560;28;20285;-60
2021/03/05 02:09:29;;;;;;;17.83;10.50;;;3.50;99.90;;;-141.85;100.00;63675.41;5013416;28;20293;-59
2021/03/05 02:11:56;;;;;;;16.87;10.57;;;3.40;99.90;;;-141.85;100.00;63675.41;5012957;28;20724;-59
2021/03/05 02:14:24;;;;;;;19.47;11.67;;;3.30;99.90;;;-141.85;100.00;63675.41;5013011;28;20653;-58
2021/03/05 02:17:05;;;;;;;20.97;10.47;;;3.40;99.90;;;-141.85;100.00;63675.41;5013001;28;20228;-58
2021/03/05 02:20:11;;;;;;;19.43;9.90;;;3.30;99.90;;;-141.85;100.00;63675.41;5013062;28;20196;-59
2021/03/05 02:23:14;;;;;;;17.97;9.47;;;3.20;99.90;;;-141.85;100.00;63675.41;5013243;28;20249;-60
2021/03/05 02:26:28;;;;;;;17.07;9.77;;;3.20;99.90;;;-141.85;100.00;63675.41;5012952;28;20269;-60
2021/03/05 02:29:36;;;;;;;16.50;8.93;;;3.10;99.90;;;-141.85;100.00;63675.41;5012626;28;20210;-59
2021/03/05 02:32:11;;;;;;;16.00;8.93;;;3.10;99.90;;;-141.85;100.00;63675.41;5012685;28;20630;-59
2021/03/05 02:34:45;;;;;;;16.67;9.53;;;3.10;99.90;;;-141.85;100.00;63675.41;5012616;28;20228;-59
2021/03/05 02:37:30;;;;;;;17.73;9.20;;;3.00;99.90;;;-141.85;100.00;63675.41;5012937;28;20792;-59
2021/03/05 02:40:06;;;;;;;15.70;8.57;;;3.00;99.90;;;-141.85;100.00;63675.41;5012886;28;20187;-59
2021/03/05 02:42:43;;;;;;;17.23;9.63;;;3.00;99.90;;;-141.85;100.00;63675.41;5012839;28;20573;-60
2021/03/05 02:45:16;;;;;;;15.13;8.87;;;3.00;99.90;;;-141.85;100.00;63675.41;5012729;28;20223;-58
2021/03/05 02:47:48;;;;;;;17.90;8.23;;;3.10;99.90;;;-141.85;100.00;63675.41;5012760;28;20241;-60
2021/03/05 02:50:21;;;;;;;17.10;8.87;;;3.10;99.90;;;-141.85;100.00;63675.41;5012797;28;20249;-59
2021/03/05 02:52:52;;;;;;;13.87;9.20;;;3.00;99.90;;;-141.85;100.00;63675.41;5012677;28;20194;-58
2021/03/05 02:55:21;;;;;;;16.13;9.33;;;3.00;99.90;;;-141.85;100.00;63675.41;5012708;28;20269;-59
2021/03/05 02:57:55;;;;;;;16.70;9.63;;;3.10;99.90;;;-141.85;100.00;63675.41;5012886;28;20309;-59
2021/03/05 03:00:24;;;;;;;17.97;9.70;;;3.00;99.90;;;-141.85;100.00;63675.41;5012945;28;20191;-59
2021/03/05 03:02:55;;;;;;;19.40;10.20;;;3.00;99.90;;;-141.85;100.00;63675.41;5012569;28;20635;-59
2021/03/05 03:05:25;;;;;;;19.87;10.37;;;3.00;99.90;;;-141.85;100.00;63675.41;5012472;28;20548;-59
2021/03/05 03:07:54;;;;;;;20.13;10.23;;;3.00;99.90;;;-141.85;100.00;63675.41;5012561;28;20739;-59
2021/03/05 03:10:25;;;;;;;22.13;10.80;;;3.00;99.90;;;-141.85;100.00;63675.41;5012717;28;20236;-58
2021/03/05 03:12:54;;;;;;;21.60;10.87;;;3.10;99.90;;;-141.85;100.00;63675.41;5012837;28;20233;-59
2021/03/05 03:15:27;;;;;;;17.63;9.50;;;3.10;99.90;;;-141.85;100.00;63675.41;5012484;28;20659;-59
2021/03/05 03:17:57;;;;;;;18.33;9.33;;;3.10;99.90;;;-141.85;100.00;63675.41;5012878;28;20294;-60
2021/03/05 03:20:26;;;;;;;18.63;9.17;;;3.10;99.90;;;-141.85;100.00;63675.41;5012697;28;20184;-59
2021/03/05 03:22:54;;;;;;;15.63;8.87;;;3.10;99.90;;;-141.85;100.00;63675.41;5012781;28;20259;-60
2021/03/05 03:25:24;;;;;;;16.67;9.13;;;3.10;99.90;;;-141.85;100.00;63675.41;5012428;28;20291;-60
2021/03/05 03:27:51;;;;;;;17.80;10.13;;;3.10;99.90;;;-141.85;100.00;63675.41;5012498;28;20261;-59
2021/03/05 03:30:20;;;;;;;17.27;8.87;;;3.10;99.90;;;-141.85;100.00;63675.41;5012216;28;20237;-59
2021/03/05 03:32:48;;;;;;;16.23;8.60;;;3.00;99.90;;;-141.85;100.00;63675.41;5012234;28;20677;-59
2021/03/05 03:35:17;;;;;;;16.23;9.30;;;3.00;99.90;;;-141.85;100.00;63675.41;5012027;28;20873;-59
2021/03/05 03:37:45;;;;;;;14.90;9.00;;;3.00;99.90;;;-141.85;100.00;63675.41;5013418;28;20311;-60
2021/03/05 03:40:17;;;;;;;15.77;8.90;;;3.00;99.90;;;-141.85;100.00;63675.41;5016028;28;20288;-59
2021/03/05 03:42:46;;;;;;;13.73;8.70;;;3.10;99.90;;;-141.85;100.00;63675.41;5016231;28;20183;-59
2021/03/05 03:45:19;;;;;;;16.63;8.57;;;3.10;99.90;;;-141.85;100.00;63675.41;5015693;28;20202;-59
2021/03/05 03:47:49;;;;;;;14.93;9.10;;;3.00;99.90;;;-141.85;100.00;63675.41;5016055;28;20185;-59
2021/03/05 03:50:27;;;;;;;14.97;9.07;;;3.10;99.90;;;-141.85;100.00;63675.41;5015455;28;20664;-59
2021/03/05 03:53:00;;;;;;;12.30;8.10;;;3.00;99.90;;;-141.85;100.00;63675.41;5015786;28;20205;-60
2021/03/05 03:55:27;;;;;;;16.50;9.90;;;3.00;99.90;;;-141.85;100.00;63675.41;5015684;28;20223;-58
2021/03/05 03:57:58;;;;;;;17.07;9.23;;;3.20;99.90;;;-141.85;100.00;63675.41;5015457;28;20283;-59
2021/03/05 04:00:26;;;;;;;16.07;8.93;;;3.20;99.90;;;-141.85;100.00;63675.41;5015312;28;20659;-59
2021/03/05 04:02:57;;;;;;;13.87;9.27;;;3.20;99.90;;;-141.85;100.00;63675.41;5015777;28;20227;-58
2021/03/05 04:05:29;;;;;;;13.60;8.47;;;3.10;99.90;;;-141.85;100.00;63675.41;5015384;28;20623;-59
2021/03/05 04:07:58;;;;;;;15.30;8.47;;;3.10;99.90;;;-141.85;100.00;63675.41;5015420;28;20202;-58
2021/03/05 04:10:26;;;;;;;14.33;9.83;;;3.10;99.90;;;-141.85;100.00;63675.41;5015548;28;20282;-59
2021/03/05 04:12:58;;;;;;;14.77;9.00;;;3.10;99.90;;;-141.85;100.00;63675.41;5015404;28;20255;-59
2021/03/05 04:15:26;;;;;;;14.37;9.17;;;3.10;99.90;;;-141.85;100.00;63675.41;5014855;28;20224;-59
2021/03/05 04:17:53;;;;;;;13.20;8.27;;;3.10;99.90;;;-141.85;100.00;63675.41;5015362;28;20247;-59
2021/03/05 04:20:26;;;;;;;18.60;9.13;;;3.10;99.90;;;-141.85;100.00;63675.41;5015255;28;20645;-59
2021/03/05 04:22:53;;;;;;;17.10;8.97;;;3.00;99.90;;;-141.85;100.00;63675.41;5015316;28;20195;-59
2021/03/05 04:25:21;;;;;;;16.13;8.97;;;3.00;99.90;;;-141.85;100.00;63675.41;5015168;28;20202;-59
2021/03/05 04:27:48;;;;;;;18.77;8.57;;;2.90;99.90;;;-141.85;100.00;63675.41;5017405;28;20294;-59
2021/03/05 04:30:17;;;;;;;16.90;9.30;;;2.80;99.90;;;-141.85;100.00;63675.41;5018189;28;20733;-59
2021/03/05 04:32:44;;;;;;;19.20;9.77;;;2.80;99.90;;;-141.85;100.00;63675.41;5017385;28;20289;-59
2021/03/05 04:35:12;;;;;;;15.77;9.33;;;2.80;99.90;;;-141.85;100.00;63675.41;5014611;28;20335;-59
2021/03/05 04:37:40;;;;;;;15.80;8.97;;;2.80;99.90;;;-141.85;100.00;63675.41;5014748;28;20613;-58
2021/03/05 04:40:11;;;;;;;17.23;8.63;;;2.80;99.90;;;-141.85;100.00;63675.41;5014806;28;20288;-59
2021/03/05 04:42:40;;;;;;;14.10;8.93;;;2.80;99.90;;;-141.85;100.00;63675.41;5014646;28;20636;-59
2021/03/05 04:45:08;;;;;;;12.03;8.07;;;2.90;99.90;;;-141.85;100.00;63675.41;5014220;28;20205;-59
2021/03/05 04:47:35;;;;;;;15.23;8.50;;;2.90;99.90;;;-141.85;100.00;63675.41;5014775;28;20205;-59
2021/03/05 04:50:05;;;;;;;14.13;9.00;;;2.90;99.90;;;-141.85;100.00;63675.41;5013570;28;20206;-59
2021/03/05 04:52:32;;;;;;;13.53;8.80;;;2.80;99.90;;;-141.85;100.00;63675.41;5014485;28;20239;-59
2021/03/05 04:54:59;;;;;;;12.17;7.77;;;2.80;99.90;;;-141.85;100.00;63675.41;5014543;28;20234;-59
2021/03/05 04:57:27;;;;;;;15.10;8.23;;;2.70;99.90;;;-141.85;100.00;63675.41;5014339;28;20222;-59
2021/03/05 04:59:54;;;;;;;13.97;8.00;;;2.70;99.90;;;-141.85;100.00;63675.41;5014150;28;20309;-59
2021/03/05 05:02:21;;;;;;;15.37;8.13;;;2.80;99.90;;;-141.85;100.00;63675.41;5014494;28;20208;-59
2021/03/05 05:04:48;;;;;;;14.20;8.60;;;2.80;99.90;;;-141.85;100.00;63675.41;5014463;28;20210;-59
2021/03/05 05:07:16;;;;;;;12.37;8.30;;;2.80;99.90;;;-141.85;100.00;63675.41;5014364;28;20246;-59
2021/03/05 05:09:43;;;;;;;14.83;8.23;;;2.80;99.90;;;-141.85;100.00;63675.41;5014095;28;20198;-58
2021/03/05 05:12:10;;;;;;;15.83;8.73;;;2.80;99.90;;;-141.85;100.00;63675.41;5014257;28;20207;-59
2021/03/05 05:14:38;;;;;;;13.37;8.63;;;2.80;99.90;;;-141.85;100.00;63675.41;5014056;28;20234;-59
2021/03/05 05:17:05;;;;;;;15.03;8.43;;;2.70;99.90;;;-141.85;100.00;63675.41;5014036;28;20722;-59
2021/03/05 05:19:32;;;;;;;15.53;9.23;;;2.50;99.90;;;-141.85;100.00;63675.41;5014084;28;20194;-60
2021/03/05 05:21:59;;;;;;;15.10;8.70;;;2.60;99.90;;;-141.85;100.00;63675.41;5013773;28;20203;-59
2021/03/05 05:24:27;;;;;;;14.57;9.03;;;2.60;99.90;;;-141.85;100.00;63675.41;5014207;28;20206;-59
2021/03/05 05:26:55;;;;;;;15.17;9.50;;;2.60;99.90;;;-141.85;100.00;63675.41;5013928;28;20206;-59
2021/03/05 05:29:23;;;;;;;17.10;9.83;;;2.60;99.90;;;-141.85;100.00;63675.41;5013583;28;20287;-60
2021/03/05 05:31:51;;;;;;;13.40;8.20;;;2.50;99.90;;;-141.85;100.00;63675.41;5013939;28;20520;-59
2021/03/05 05:34:18;;;;;;;16.20;9.80;;;2.50;99.90;;;-141.85;100.00;63675.41;5013442;28;20209;-59
2021/03/05 05:36:45;;;;;;;16.57;10.20;;;2.50;99.90;;;-141.85;100.00;63675.41;5013838;28;20207;-59
2021/03/05 05:39:12;;;;;;;15.97;9.60;;;2.50;99.90;;;-141.85;100.00;63675.41;5013559;28;20661;-60
2021/03/05 05:41:40;;;;;;;18.97;9.67;;;2.50;99.90;;;-141.85;100.00;63675.41;5013462;28;20246;-60
2021/03/05 05:44:08;;;;;;;16.47;9.30;;;2.50;99.90;;;-141.85;100.00;63675.41;5013109;28;20253;-59
2021/03/05 05:46:39;;;;;;;16.23;9.27;;;2.50;99.90;;;-141.85;100.00;63675.41;5013810;28;20237;-59
2021/03/05 05:49:10;;;;;;;16.93;9.67;;;2.50;99.90;;;-141.85;100.00;63675.41;5013685;28;20196;-59
2021/03/05 05:51:40;;;;;;;19.27;10.77;;;2.50;99.90;;;-141.85;100.00;63675.41;5013794;28;20187;-59
2021/03/05 05:54:09;;;;;;;17.87;10.37;;;2.40;99.90;;;-141.85;100.00;63675.41;5013617;28;20234;-60
2021/03/05 05:56:40;;;;;;;17.37;9.90;;;2.30;99.90;;;-141.85;100.00;63675.41;5013257;28;20234;-59
2021/03/05 05:59:09;;;;;;;18.90;10.13;;;2.20;99.90;;;-141.85;100.00;63675.41;5013389;28;20314;-59
2021/03/05 06:01:38;;;;;;;18.63;10.10;;;2.10;99.90;;;-141.85;100.00;63675.41;5013043;28;20207;-59
2021/03/05 06:04:07;;;;;;;14.07;9.33;;;2.00;99.90;;;-141.85;100.00;63675.41;5013407;28;20209;-59
2021/03/05 06:06:38;;;;;;;16.27;8.90;;;1.90;99.90;;;-141.85;100.00;63675.41;5013572;28;20301;-60
2021/03/05 06:09:05;;;;;;;16.10;9.57;;;1.90;99.90;;;-141.85;100.00;63675.41;5013662;28;20273;-60
2021/03/05 06:11:34;;;;;;;15.47;9.30;;;1.80;99.90;;;-141.85;100.00;63675.41;5013289;28;20211;-60
2021/03/05 06:14:03;;;;;;;13.37;8.90;;;1.80;99.90;;;-141.85;100.00;63675.41;5012936;28;20281;-60
2021/03/05 06:16:31;;;;;;;17.50;8.97;;;1.80;99.90;;;-141.85;100.00;63675.41;5013360;28;20242;-60
2021/03/05 06:18:59;;;;;;;13.70;8.37;;;1.80;99.90;;;-141.85;100.00;63675.41;5012955;28;20214;-59
2021/03/05 06:21:38;;;;;;;11.90;7.77;;;1.80;99.90;;;-141.85;100.00;63675.41;5013221;28;20234;-60
2021/03/05 06:24:09;;;;;;;16.63;8.50;;;1.60;99.90;;;-141.85;100.00;63675.41;5013002;28;20765;-58
2021/03/05 06:26:51;;;;;;;16.50;7.93;;;1.50;99.90;;;-141.85;100.00;63675.41;5013068;28;20282;-59
2021/03/05 06:29:21;;;;;;;18.00;9.40;;;1.50;99.90;;;-141.85;100.00;63675.41;5012980;28;20186;-60
2021/03/05 06:31:58;;;;;;;17.00;9.00;;;1.60;99.90;;;-141.85;100.00;63675.41;5013283;28;20215;-61
2021/03/05 06:34:27;;;;;;;18.83;9.33;;;1.50;99.90;;;-141.85;100.00;63675.41;5012877;28;20278;-60
2021/03/05 06:37:04;;;;;;;14.60;9.03;;;1.60;99.90;;;-141.85;100.00;63675.41;5013150;28;20278;-60
2021/03/05 06:39:34;;;;;;;14.73;8.73;;;1.70;99.90;;;-141.85;100.00;63675.41;5013073;28;20206;-59
2021/03/05 06:42:05;;;;;;;17.17;8.90;;;1.70;99.90;;;-141.85;100.00;63675.41;5012910;28;20190;-60
2021/03/05 06:44:35;;;;;;;15.40;8.43;;;1.70;99.90;;;-141.85;100.00;63675.41;5012842;28;20190;-60
2021/03/05 06:47:14;;;;;;;13.83;7.43;;;1.70;99.90;;;-141.85;100.00;63675.41;5013092;28;20258;-59
2021/03/05 06:49:46;;;;;;;11.57;7.27;;;1.80;99.90;;;-141.85;100.00;63675.41;5012720;28;20264;-60
2021/03/05 06:52:16;;;;;;;10.80;6.87;;;1.80;99.90;;;-141.85;100.00;63675.41;5008743;28;20199;-60
2021/03/05 06:54:46;;;;;;;12.80;6.67;;;1.70;99.90;;;-141.85;100.00;63675.41;5002057;28;20203;-60
2021/03/05 06:57:25;;;;;;;12.43;6.33;;;1.60;99.90;;;-141.85;100.00;63675.41;5007251;28;20230;-60
2021/03/05 06:59:53;;;;;;;13.07;7.13;;;1.60;99.90;;;-141.85;100.00;63675.41;4993853;28;20254;-60
2021/03/05 07:02:30;;;;;;;13.43;7.00;;;1.50;99.90;;;-141.85;100.00;63675.41;4998124;28;20262;-60
2021/03/05 07:04:58;;;;;;;13.27;7.10;;;1.60;99.90;;;-141.85;100.00;63675.41;5013937;28;20197;-60
2021/03/05 07:07:27;;;;;;;16.77;7.23;;;1.70;99.90;;;-141.85;100.00;63675.41;5011976;28;20207;-59
2021/03/05 07:09:55;;;;;;;13.43;6.60;;;1.60;99.90;;;-141.85;100.00;63675.41;5005102;28;20301;-64
2021/03/05 07:12:25;;;;;;;12.17;6.97;;;1.70;99.90;;;-141.85;100.00;63675.41;5013299;28;20729;-63
2021/03/05 07:15:03;;;;;;;11.87;6.10;;;1.80;99.90;;;-141.85;100.00;63675.41;5016352;28;20202;-64
2021/03/05 07:17:30;;;;;;;16.23;7.17;;;1.80;99.90;;;-141.85;100.00;63675.41;5010299;28;20577;-64
2021/03/05 07:19:58;;;;;;;13.93;7.20;;;1.80;99.90;;;-141.85;100.00;63675.41;5003660;28;20221;-64
2021/03/05 07:22:30;;;;;;;12.67;7.13;;;1.80;99.90;;;-141.85;100.00;63675.41;4996410;28;20686;-64
2021/03/05 07:25:01;;;;;;;16.17;7.03;;;1.90;99.90;;;-141.85;100.00;63675.41;5001471;28;20286;-63
2021/03/05 07:27:35;;;;;;;18.50;8.30;;;1.90;99.90;;;-141.85;100.00;63675.41;5015793;28;20612;-64
2021/03/05 07:30:12;;;;;;;12.50;6.10;;;1.90;99.90;;;-141.85;100.00;63675.41;5014668;28;20642;-63
2021/03/05 07:32:46;;;;;;;12.33;6.73;;;1.90;99.90;;;-141.85;100.00;63675.41;5007520;28;20203;-64
2021/03/05 07:35:23;;;;;;;10.87;6.67;;;2.00;99.90;;;-141.85;100.00;63675.41;4996252;28;20238;-64
2021/03/05 07:37:55;;;;;;;12.10;6.70;;;2.00;99.90;;;-141.85;100.00;63675.41;4996518;28;20208;-63
2021/03/05 07:40:22;;;;;;;15.97;7.13;;;2.10;99.90;;;-141.85;100.00;63675.41;4996157;28;20715;-63
2021/03/05 07:42:50;;;;;;;13.70;6.37;;;2.20;99.90;;;-141.85;100.00;63675.41;4999808;28;20199;-63
2021/03/05 07:45:18;;;;;;;13.17;6.23;;;2.30;99.90;;;-141.85;100.00;63675.41;5004668;28;20568;-65
2021/03/05 07:47:48;;;;;;;13.27;6.73;;;2.30;99.90;;;-141.85;100.00;63675.41;5014559;28;20689;-64
2021/03/05 07:50:24;;;;;;;13.73;6.60;;;2.30;99.90;;;-141.85;100.00;63675.41;5014642;28;20718;-65
2021/03/05 07:52:52;;;;;;;8.47;5.53;;;2.40;99.90;;;-141.85;100.00;63675.41;5004895;28;20264;-64
2021/03/05 07:55:36;;;;;;;9.70;5.93;;;2.40;99.90;;;-141.85;100.00;63675.41;5015336;28;20289;-64
2021/03/05 07:58:04;;;;;;;12.67;6.10;;;2.50;99.90;;;-141.85;100.00;63675.41;5015367;28;20207;-64
2021/03/05 08:00:48;;;;;;;11.77;6.20;;;2.50;99.90;;;-141.85;100.00;63675.41;5015388;28;20247;-64
2021/03/05 08:03:19;;;;;;;13.30;6.37;;;2.80;99.90;;;-141.85;100.00;63675.41;5015427;28;20649;-63
2021/03/05 08:05:49;;;;;;;8.40;5.13;;;2.80;99.90;;;-141.85;100.00;63675.41;5015435;28;20211;-64
2021/03/05 08:08:23;;;;;;;10.10;5.50;;;2.90;99.90;;;-141.85;100.00;63675.41;5015265;28;20188;-64
2021/03/05 08:10:55;;;;;;;10.40;5.77;;;2.90;99.90;;;-141.85;100.00;63675.41;5008548;28;20210;-65
2021/03/05 08:13:49;;;;;;;9.63;5.73;;;2.80;99.90;;;-141.85;100.00;63675.41;5000752;28;20822;-63
2021/03/05 08:16:48;;;;;;;10.23;5.20;;;2.80;99.90;;;-141.85;100.00;63675.41;4995457;28;20232;-64
2021/03/05 08:19:46;;;;;;;9.07;4.50;;;2.90;99.90;;;-141.85;100.00;63675.41;4995242;28;20578;-64
2021/03/05 08:22:17;;;;;;;7.80;5.07;;;3.00;99.90;;;-141.85;100.00;63675.41;4995449;28;20192;-63
2021/03/05 08:24:45;;;;;;;8.77;4.33;;;3.10;99.90;;;-141.85;100.00;63675.41;4995108;28;20204;-63
2021/03/05 08:27:37;;;;;;;11.67;4.60;;;3.30;99.90;;;-141.85;100.00;63675.41;4996701;28;20213;-64
2021/03/05 08:30:20;;;;;;;9.27;4.10;;;3.30;99.90;;;-141.85;100.00;63675.41;4995148;28;20212;-66
2021/03/05 08:32:57;;;;;;;8.67;4.30;;;3.20;99.90;;;-141.85;100.00;63675.41;4995475;28;20210;-64
2021/03/05 08:35:47;;;;;;;8.63;4.17;;;3.20;99.90;;;-141.85;100.00;63675.41;4994961;28;20259;-64
2021/03/05 08:38:20;;;;;;;6.60;4.30;;;3.20;99.90;;;-141.85;100.00;63675.41;4995399;28;20218;-62
2021/03/05 08:40:51;;;;;;;10.60;4.73;;;3.20;99.90;;;-141.85;100.00;63675.41;4995129;28;20265;-64
2021/03/05 08:43:25;;;;;;;8.07;4.63;;;3.30;99.90;;;-141.85;100.00;63675.41;4995088;28;20242;-66
2021/03/05 08:45:55;;;;;;;8.03;3.87;;;3.30;99.90;;;-141.85;100.00;63675.41;4995039;28;20222;-64
2021/03/05 08:48:41;;;;;;;5.53;3.53;;;3.30;99.90;;;-141.85;100.00;63675.41;4995527;28;20571;-63
2021/03/05 08:51:12;;;;;;;8.10;3.50;;;3.40;99.90;;;-141.85;100.00;63675.41;4999127;28;20197;-66
2021/03/05 08:53:44;;;;;;;8.43;4.10;;;3.50;99.90;;;-141.85;100.00;63675.41;5002014;28;20671;-64
2021/03/05 08:56:22;;;;;;;8.03;4.23;;;3.60;99.90;;;-141.85;100.00;63675.41;5003628;28;20227;-64
2021/03/05 08:59:00;;;;;;;6.53;3.67;;;3.70;99.90;;;-141.85;100.00;63675.41;4994595;28;20208;-63
2021/03/05 09:01:34;;;;;;;6.67;3.73;;;3.80;99.90;;;-141.85;100.00;63675.41;4994750;28;20215;-64
2021/03/05 09:04:10;;;;;;;6.13;3.33;;;3.80;99.90;;;-141.85;100.00;63675.41;5000499;28;20216;-63
2021/03/05 09:06:46;;;;;;;6.77;3.83;;;3.90;99.90;;;-141.85;100.00;63675.41;4998289;28;20207;-63
2021/03/05 09:09:14;;;;;;;5.57;3.50;;;3.80;99.90;;;-141.85;100.00;63675.41;4994328;28;20617;-65
2021/03/05 09:11:41;;;;;;;5.13;3.13;;;3.80;99.90;;;-141.85;100.00;63675.41;4994228;28;20239;-63
2021/03/05 09:14:23;;;;;;;4.73;3.00;;;3.80;99.90;;;-141.85;100.00;63675.41;4994395;28;20294;-61
2021/03/05 09:16:58;;;;;;;4.23;3.00;;;3.80;99.90;;;-141.85;100.00;63675.41;4994585;28;20240;-60
2021/03/05 09:19:38;;;;;;;4.57;2.83;;;4.00;99.90;;;-141.85;100.00;63675.41;4994377;28;20209;-60
2021/03/05 09:22:12;;;;;;;3.57;2.77;;;4.30;99.90;;;-141.85;100.00;63675.41;4994477;28;20191;-59
2021/03/05 09:24:52;;;;;;;6.27;3.03;;;4.30;99.90;;;-141.85;100.00;63675.41;4994428;28;20607;-59
2021/03/05 09:27:21;;;;;;;5.00;3.07;;;4.40;99.90;;;-141.85;100.00;63675.41;4994108;28;20191;-60
2021/03/05 09:29:48;;;;;;;4.90;2.73;;;4.30;99.90;;;-141.85;100.00;63675.41;4994128;28;20264;-59
2021/03/05 09:32:16;;;;;;;3.90;2.47;;;4.10;99.90;;;-141.85;100.00;63675.41;4994404;28;20284;-59
2021/03/05 09:34:56;;;;;;;3.63;2.40;;;4.00;99.90;;;-141.85;100.00;63675.41;4993288;28;20299;-61
2021/03/05 09:37:26;;;;;;;2.60;2.03;;;3.90;99.90;;;-141.85;100.00;63675.41;4994086;28;20222;-60
2021/03/05 09:39:57;;;;;;;4.80;2.50;;;4.10;99.90;;;-141.85;100.00;63675.41;4994085;28;20325;-60
2021/03/05 09:42:55;;;;;;;3.50;2.47;;;4.20;99.90;;;-141.85;100.00;63675.41;4993639;28;20209;-58
2021/03/05 09:45:50;;;;;;;3.17;2.20;;;4.30;99.90;;;-141.85;100.00;63675.41;4994101;28;20363;-59
2021/03/05 09:48:29;;;;;;;4.13;2.10;;;4.30;99.90;;;-141.85;100.00;63675.41;4948907;28;20232;-60
2021/03/05 09:51:00;;;;;;;3.63;2.10;;;4.40;99.90;;;-141.85;100.00;63675.41;4993822;28;20238;-59
2021/03/05 09:53:31;;;;;;;2.43;1.50;;;4.30;99.90;;;-141.85;100.00;63675.41;4993989;28;20202;-59
2021/03/05 09:56:02;;;;;;;3.37;1.90;;;4.50;99.90;;;-141.85;100.00;63675.41;5000777;28;20227;-60
2021/03/05 09:58:30;;;;;;;2.50;1.63;;;4.60;99.90;;;-141.85;100.00;63675.41;5012787;28;20304;-59
2021/03/05 10:00:57;;;;;;;5.37;2.10;;;4.60;99.90;;;-141.85;100.00;63675.41;5013459;28;20327;-59
2021/03/05 10:03:25;;;;;;;2.97;2.00;;;4.80;99.90;;;-141.85;100.00;63675.41;5013171;28;20549;-59
2021/03/05 10:05:54;;;;;;;2.90;1.97;;;4.80;99.90;;;-141.85;100.00;63675.41;5010451;28;20204;-60
2021/03/05 10:08:26;;;;;;;3.57;1.70;;;4.70;99.90;;;-141.85;100.00;63675.41;5003699;28;20273;-60
2021/03/05 10:11:04;;;;;;;3.10;2.20;;;4.70;99.90;;;-141.85;100.00;63675.41;5008503;28;20215;-58
2021/03/05 10:13:50;;;;;;;3.93;2.03;;;4.70;99.90;;;-141.85;100.00;63675.41;4998247;28;20209;-60
2021/03/05 10:16:21;;;;;;;3.57;1.83;;;4.70;99.90;;;-141.85;100.00;63675.41;4993707;28;20266;-59
2021/03/05 10:18:52;;;;;;;2.70;1.90;;;4.60;99.90;;;-141.85;100.00;63675.41;4993335;28;20300;-60